• Join FlightAware (Why Join?)
  • Login
  • US Flag 
Trick or treat! (Boo!!) 
04:33AM EDT


 

Airport Tracker/Info


-or-


 

Live Flight TrackerFlight Track Log ✈ VOZ1165 ✈ 05-Jul-2014 ✈ YSSY / SYD - YCFS

Flight Track Log - Related Links

Times and Time Zones

All times are in EDT time to prevent confusion due to time zone crossing. See the VOZ1165 flight status page for this flight to view local times or setup timezone preferences in your user account.

Time Position Orientation Groundspeed Altitude Reporting Facility
EDT Latitude Longitude Course Direction KTS MPH feet Rate Location/Type
09:29PM -33.9463 151.1877 357° North 145 167 800  Level FlightAware ADS-B (EVDA / DGP)
09:29PM -33.9439 151.1876 North 147 169 900 2,700 Climbing FlightAware ADS-B (YRAY)
09:29PM -33.9395 151.1885 19° North 153 176 1,300 1,560 Climbing FlightAware ADS-B (EVDA / DGP)
09:30PM -33.9281 151.1936 23° Northeast 174 200 1,500 900 Climbing FlightAware ADS-B (YRAY)
09:30PM -33.9258 151.1949 28° Northeast 183 211 1,600 1,680 Climbing FlightAware ADS-B (EVDA / DGP)
09:30PM -33.9224 151.1970 29° Northeast 186 214 1,700 1,260 Climbing FlightAware ADS-B (YRAY)
09:30PM -33.9148 151.2028 35° Northeast 201 231 1,900 1,440 Climbing FlightAware ADS-B
09:30PM -33.9028 151.2136 38° Northeast 212 244 2,300 2,400 Climbing FlightAware ADS-B (YRAY)
09:30PM -33.8899 151.2253 38° Northeast 205 236 3,200 2,400 Climbing FlightAware ADS-B (YRAY)
09:31PM -33.8773 151.2362 36° Northeast 236 272 3,600 1,200 Climbing FlightAware ADS-B (YSSY / SYD)
09:31PM -33.8630 151.2485 37° Northeast 260 299 3,800 1,380 Climbing FlightAware ADS-B (YRAY)
09:31PM -33.8474 151.2624 37° Northeast 282 325 4,300 2,160 Climbing FlightAware ADS-B (EVDA / DGP)
09:31PM -33.8368 151.2728 44° Northeast 294 338 4,700 1,980 Climbing FlightAware ADS-B (EVDA / DGP)
09:31PM -33.8327 151.2784 52° Northeast 297 342 4,800 1,200 Climbing FlightAware ADS-B (YRAY)
09:31PM -33.8279 151.2865 58° Northeast 312 359 4,900 780 Climbing FlightAware ADS-B (EVDA / DGP)
09:32PM -33.8218 151.3012 68° East 327 376 5,000 420 Climbing FlightAware ADS-B (EVDA / DGP)
09:32PM -33.8212 151.3031 71° East 328 377 5,000  Level FlightAware ADS-B (YSSY / SYD)
09:32PM -33.8176 151.3147 70° East 328 377 5,000 -300 Level FlightAware ADS-B (YRAY)
09:32PM -33.8101 151.3426 70° East 320 368 4,900  Descending FlightAware ADS-B (YSSY / SYD)
09:32PM -33.8032 151.3625 61° Northeast 329 379 5,000 1,680 Climbing FlightAware ADS-B (YSSY / SYD)
09:33PM -33.7863 151.3938 49° Northeast 333 383 5,800 5,400 Climbing FlightAware ADS-B (YSSY / SYD)
09:33PM -33.7804 151.4012 41° Northeast 320 368 6,800 6,960 Climbing FlightAware ADS-B (YSSY / SYD)
09:33PM -33.7718 151.4102 38° Northeast 313 360 7,200 3,960 Climbing FlightAware ADS-B (EVDA / DGP)
09:33PM -33.7695 151.4123 33° Northeast 306 352 7,800 4,800 Climbing FlightAware ADS-B (YSSY / SYD)
09:33PM -33.7472 151.4272 22° Northeast 300 345 8,900 3,600 Climbing FlightAware ADS-B (EVDA / DGP)
09:33PM -33.7385 151.4309 19° North 301 346 9,000 3,120 Climbing FlightAware ADS-B (YRAY)
09:34PM -33.7015 151.4456 18° North 313 360 10,700 2,820 Climbing FlightAware ADS-B (EVDA / DGP)
09:34PM -33.6534 151.4650 19° North 331 381 11,900 2,460 Climbing FlightAware ADS-B (YSSY / SYD)
09:35PM -33.6156 151.4799 19° North 339 390 13,200 3,000 Climbing FlightAware ADS-B (YSSY / SYD)
09:35PM -33.5666 151.4995 19° North 346 398 14,900 3,000 Climbing FlightAware ADS-B (YSSY / SYD)
09:36PM -33.5145 151.5204 18° North 354 407 16,500 2,880 Climbing FlightAware ADS-B (EVDA / DGP)
09:36PM -33.5037 151.5247 18° North 354 407 16,800 2,520 Climbing FlightAware ADS-B (YRAY)
09:36PM -33.4531 151.5449 19° North 365 420 18,200 2,340 Climbing FlightAware ADS-B (EVDA / DGP)
09:37PM -33.4004 151.5661 19° North 376 433 19,300 1,920 Climbing FlightAware ADS-B (EVDA / DGP)
09:37PM -33.3473 151.5873 19° North 391 450 20,300 1,800 Climbing FlightAware ADS-B (YSSY / SYD)
09:38PM -33.2950 151.6082 19° North 406 467 21,200 1,680 Climbing FlightAware ADS-B (YSSY / SYD)
09:38PM -33.2940 151.6086 19° North 408 470 21,300 1,560 Climbing FlightAware ADS-B (YSSY / SYD)
09:38PM -33.2666 151.6195 18° North 417 480 21,600 1,800 Climbing FlightAware ADS-B (EVDA / DGP)
09:39PM -33.2091 151.6424 19° North 425 489 22,600 1,920 Climbing FlightAware ADS-B (EVDA / DGP)
09:39PM -33.1484 151.6665 18° North 430 495 23,700 2,220 Climbing FlightAware ADS-B (YSSY / SYD)
09:40PM -33.0802 151.6934 18° North 427 491 25,100 2,040 Climbing FlightAware ADS-B (YSSY / SYD)
09:40PM -33.0204 151.7169 18° North 433 498 26,000 1,920 Climbing FlightAware ADS-B (EVDA / DGP)
09:41PM -32.9615 151.7402 18° North 434 499 27,100 1,740 Climbing FlightAware ADS-B (EVDA / DGP)
09:42PM -32.8963 151.7659 18° North 441 507 28,000 1,440 Climbing FlightAware ADS-B (YSSY / SYD)
09:42PM -32.8838 151.7708 18° North 443 510 28,100 1,500 Climbing FlightAware ADS-B (YSSY / SYD)
09:42PM -32.8312 151.7917 19° North 445 512 28,900 1,740 Climbing FlightAware ADS-B (YSSY / SYD)
09:42PM -32.8206 151.7959 19° North 445 512 29,100 1,140 Climbing FlightAware ADS-B (YCNK / CES)
09:43PM -32.7545 151.8219 18° North 451 519 29,600 1,140 Climbing FlightAware ADS-B (YSSY / SYD)
09:43PM -32.6924 151.8463 18° North 455 524 30,300 1,380 Climbing FlightAware ADS-B (YSSY / SYD)
09:44PM -32.6251 151.8727 18° North 458 527 31,100 1,140 Climbing FlightAware ADS-B (YCNK / CES)
09:44PM -32.5631 151.8970 18° North 461 531 31,600 1,080 Climbing FlightAware ADS-B (YCNK / CES)
09:45PM -32.4978 151.9225 18° North 464 534 32,300 1,320 Climbing FlightAware ADS-B (YSSY / SYD)
09:45PM -32.4306 151.9487 18° North 462 532 33,000 660 Climbing FlightAware ADS-B (YSSY / SYD)
09:46PM -32.3664 151.9737 18° North 478 550 33,000  Level FlightAware ADS-B (YSSY / SYD)
09:46PM -32.3096 151.9958 18° North 477 549 33,000  Level FlightAware ADS-B (EVDA / DGP)
09:47PM -32.2388 152.0234 18° North 478 550 33,000  Level FlightAware ADS-B (EVDA / DGP)
09:47PM -32.2173 152.0317 18° North 478 550 33,000  Level FlightAware ADS-B (YSSY / SYD)
09:48PM -32.0939 152.0796 18° North 475 547 33,000  Level FlightAware ADS-B (YSSY / SYD)
09:49PM -32.0290 152.1047 18° North 479 551 33,000  Level FlightAware ADS-B (YSSY / SYD)
09:49PM -31.9701 152.1273 18° North 484 557 33,000  Level FlightAware ADS-B (YSSY / SYD)
09:50PM -31.8933 152.1570 18° North 481 554 33,000 -120 Level FlightAware ADS-B (YSSY / SYD)
09:50PM -31.8278 152.1822 18° North 472 543 32,900 -1,500 Descending FlightAware ADS-B (YSSY / SYD)
09:51PM -31.7662 152.2059 18° North 467 537 31,500 -2,580 Descending FlightAware ADS-B (YSSY / SYD)
09:51PM -31.7025 152.2304 18° North 456 525 30,200 -2,520 Descending FlightAware ADS-B (EVDA / DGP)
09:52PM -31.6398 152.2544 18° North 454 522 28,900 -2,460 Descending FlightAware ADS-B (YSSY / SYD)
09:52PM -31.5946 152.2717 18° North 443 510 27,700 -2,880 Descending FlightAware ADS-B (EVDA / DGP)
09:53PM -31.5026 152.3068 18° North 447 514 25,500 -2,700 Descending FlightAware ADS-B (EVDA / DGP)
09:54PM -31.6165 152.2633 18° North 437 503 23,200 -2,220 Descending FlightAware ADS-B (YSSY / SYD)
09:55PM -31.2790 152.3914 18° North 417 480 21,200 -2,220 Descending Aus ATC (RADAR)
09:56PM -31.1457 152.4422 18° North 399 459 18,500 -2,160 Descending Aus ATC (RADAR)
09:56PM -31.1199 152.4520 18° North 395 455 18,000 -2,040 Descending Aus ATC (RADAR)
09:57PM -31.0603 152.4745 18° North 388 447 16,800 -2,040 Descending Aus ATC (RADAR)
09:58PM -30.9726 152.5079 18° North 369 425 15,000 -2,040 Descending Aus ATC (RADAR)
09:58PM -30.9130 152.5307 18° North 368 423 13,800 -2,280 Descending Aus ATC (RADAR)
09:59PM -30.8345 152.5597 18° North 357 411 11,800 -2,340 Descending Aus ATC (RADAR)
10:00PM -30.7898 152.5828 24° Northeast 354 407 10,700 -1,320 Descending Aus ATC (RADAR)
10:01PM -30.7245 152.6593 45° Northeast 323 372 9,900 -1,140 Descending Aus ATC (RADAR)
10:01PM -30.6990 152.6883 44° Northeast 312 359 9,100 -1,740 Descending Aus ATC (RADAR)
10:02PM -30.6634 152.7298 45° Northeast 311 358 8,200 -1,440 Descending Aus ATC (RADAR)
10:02PM -30.6236 152.7755 45° Northeast 302 348 7,300 -1,320 Descending Aus ATC (RADAR)
10:03PM -30.5992 152.8028 44° Northeast 295 339 6,800 -1,440 Descending Aus ATC (RADAR)
10:03PM -30.5613 152.8456 44° Northeast 286 329 5,800 -1,800 Descending Aus ATC (RADAR)
10:04PM -30.5210 152.8953 47° Northeast 281 323 4,300 -1,500 Descending Aus ATC (RADAR)
10:05PM -30.4917 152.9320 47° Northeast 267 307 3,800 -960 Descending Aus ATC (RADAR)
10:08PM -30.3856 153.0582 42° Northeast 135 155 1,200 -960 Descending FlightAware ADS-B (YCFS)
10:08PM -30.3769 153.0672 42° Northeast 131 151 900 -780 Descending FlightAware ADS-B (YCFS)
10:08PM -30.3675 153.0772 43° Northeast 130 150 700 -600 Descending FlightAware ADS-B (YCFS)
10:09PM -30.3605 153.0843 41° Northeast 128 147 500 -600 Descending FlightAware ADS-B (YCFS)
10:09PM -30.3497 153.0952 41° Northeast 130 150 300 -600 Descending FlightAware ADS-B (YCFS)
10:11PM -30.3206 153.1164 44° Northeast  Level Estimated
10:12PM -30.3206 153.1164 North  Level Estimated
10:13PM -30.3206 153.1164 44° Northeast  Level Estimated
10:14PM -30.3206 153.1164 North  Level Estimated
10:15PM -30.3206 153.1164 44° Northeast  Level Estimated
10:16PM -30.3206 153.1164 North  Level Estimated
10:17PM -30.3206 153.1164 44° Northeast  Level Estimated
10:18PM -30.3206 153.1164 North  Level Estimated
10:19PM -30.3206 153.1164 44° Northeast  Level Estimated
10:20PM -30.3206 153.1164 North  Level Estimated
10:21PM -30.3206 153.1164 44° Northeast  Level Estimated